Hallandale, FL

5:32 PM EST on December 25, 2014 (GMT -0500)
Fort Lauderdale-Hollywood International | Change Station
CLOSE
Current Station
Airport
Location: Ft Lauderdale,
Elevation: 10 ft
Nearby Weather Stations

Elev 10 ft 26.07 °N, 80.15 °W | Updated 39 minutes ago

Overcast
Overcast
69 °F
Feels Like 69 °F
N
10
Wind Variable Wind from NE

Today
High -- | Low -- °F
--% Chance of Precip.
Yesterday
High -- | Low -- °F
Precip. -- in
7:05 AM 5:36 PM
Waxing Crescent, 19% visible
Pressure 30.14 in
Visibility 10.0 miles
Clouds Scattered Clouds 3300 ft
Mostly Cloudy 6500 ft
Overcast 25000 ft
Dew Point 56 °F
Humidity 63%
Rainfall 0.29 in
Snow Depth Not available.
UV 0 out of 12
Pollen 1.20 out of 12
Air Quality Not available.
Flu Activity Not available.
METAR KFLL 252153Z 04009KT 10SM SCT033 BKN065 OVC250 21/13 A3014 RMK AO2 SLP206 T02060133

More Conditions Fewer Conditions

Pressure 30.14 in
Visibility 10.0 miles
Clouds Scattered Clouds 3300 ft
Mostly Cloudy 6500 ft
Overcast 25000 ft
Dew Point 56 °F
Humidity 63%
Rainfall 0.29 in
Snow Depth Not available.
UV 0 out of 12
Pollen 1.20 out of 12
Air Quality Not available.
Flu Activity Not available.
METAR KFLL 252153Z 04009KT 10SM SCT033 BKN065 OVC250 21/13 A3014 RMK AO2 SLP206 T02060133

More Conditions Fewer Conditions

10-Day Weather Forecast

Almanac

Astronomy

Dec. 25, 2014 Rise Set
Actual Time
Civil Twilight
Nautical Twilight
Astronomical Twilight
Moon
Length of Visible Light
Length of Day
Tomorrow will be .
, % of the Moon is Illuminated

Today's Extremes

State Highs State Lows

Community

WunderPhotos

Upload Photos

1,780,430 photos uploaded!

WunderBlogs® & News

Nearby

Air Quality

  Air Quality AQ Index Pollutant
Not available.

Snow Depth

Station Depth Elevation

Earthquake Activity

City Distance Mag. Time & Date
Minimum magnitude displayed is 2.5.

Coastal Water Temperatures

Place Temperature

Nearby Weather Stations